Alabama, New York
Current Conditions -  °F | °C
As of 9:54 AM on Thursday 30 Oct 2014 (Local Time) from KBUF Reporting Station
Few Clouds Few Clouds  
Wind Chill: 41°   Ceiling: Unl
Heat Index: 45°   Visibility: 10mi
Dew Point: 36°   Wind: 7mph
Humidity: 71%   Direction: 300°WNW
Pressure: 30.07"   Gusts: NA
Location:  43.1°N, 78.39°W
Report Text: KBUF 301354Z 30006KT 10SM FEW020 FEW036 FEW065 07/02 A3007 RMK AO2 SLP188 T00720022
Loading
Personal Weather Stations






























Interactive Weather Map New forecast layout! Learn more

10-Day Weather Forecast

Advertisements
Track Severe Weather on mobile